createdAt,value
2022-08-05T00:01:21.014Z,94.50
2022-08-05T00:03:57.018Z,94.60
2022-08-05T00:06:32.178Z,94.80
2022-08-05T00:09:01.284Z,95.10
2022-08-05T00:11:30.695Z,95.30
2022-08-05T00:14:12.915Z,95.50
2022-08-05T00:16:52.661Z,95.80
2022-08-05T00:19:24.722Z,96.00
2022-08-05T00:22:02.844Z,95.90
2022-08-05T00:24:32.272Z,96.20
2022-08-05T00:27:04.465Z,96.10
2022-08-05T00:29:38.467Z,96.40
2022-08-05T00:32:13.086Z,96.70
2022-08-05T00:35:04.557Z,96.90
2022-08-05T00:37:35.591Z,97.20
2022-08-05T00:40:26.790Z,97.40
2022-08-05T00:42:56.215Z,97.50
2022-08-05T00:45:28.379Z,97.70
2022-08-05T00:48:07.748Z,97.70
2022-08-05T00:50:36.050Z,97.90
2022-08-05T00:53:09.526Z,97.90
2022-08-05T00:55:42.900Z,97.50
2022-08-05T00:58:12.576Z,97.40
2022-08-05T01:00:42.059Z,96.90
2022-08-05T01:03:22.400Z,96.60
2022-08-05T01:05:51.702Z,96.80
2022-08-05T01:08:39.898Z,96.50
2022-08-05T01:11:14.252Z,96.10
2022-08-05T01:14:01.077Z,96.10
2022-08-05T01:16:34.752Z,96.00
2022-08-05T01:19:14.302Z,96.20
2022-08-05T01:22:24.000Z,96.50
2022-08-05T01:25:08.048Z,96.70
2022-08-05T01:28:08.916Z,96.80
2022-08-05T01:30:50.662Z,96.80
2022-08-05T01:33:29.469Z,96.70
2022-08-05T01:36:13.015Z,96.80
2022-08-05T01:38:48.464Z,96.60
2022-08-05T01:41:21.911Z,96.50
2022-08-05T01:43:53.417Z,96.50
2022-08-05T01:46:42.828Z,96.60
2022-08-05T01:49:24.203Z,96.40
2022-08-05T01:51:58.316Z,96.30
2022-08-05T01:54:30.487Z,96.40
2022-08-05T01:58:10.550Z,96.60
2022-08-05T01:59:52.510Z,96.60
2022-08-05T02:02:26.222Z,96.70
2022-08-05T02:04:59.445Z,96.90
2022-08-05T02:07:30.505Z,96.80
2022-08-05T02:09:59.246Z,96.80
2022-08-05T02:12:35.556Z,96.80
2022-08-05T02:15:12.043Z,96.80
2022-08-05T02:18:28.706Z,96.80
2022-08-05T02:20:47.140Z,96.90
2022-08-05T02:23:18.521Z,97.00
2022-08-05T02:25:50.169Z,97.10
2022-08-05T02:28:28.424Z,97.40
2022-08-05T02:31:04.138Z,97.40
2022-08-05T02:33:38.432Z,97.60
2022-08-05T02:36:10.070Z,97.70
2022-08-05T02:38:43.713Z,97.70
2022-08-05T02:41:22.886Z,97.70
2022-08-05T02:44:06.098Z,97.70
2022-08-05T02:46:53.437Z,97.80
2022-08-05T02:49:36.375Z,97.60
2022-08-05T02:52:08.771Z,97.80
2022-08-05T02:54:41.544Z,98.00
2022-08-05T02:58:10.221Z,97.70
2022-08-05T03:00:02.103Z,97.80
2022-08-05T03:02:35.631Z,97.60
2022-08-05T03:05:04.227Z,97.60
2022-08-05T03:08:01.263Z,97.80
2022-08-05T03:10:24.804Z,97.70
2022-08-05T03:12:54.274Z,98.00
2022-08-05T03:15:24.315Z,98.00
2022-08-05T03:17:55.917Z,98.10
2022-08-05T03:20:26.336Z,98.20
2022-08-05T03:22:57.514Z,98.10
2022-08-05T03:25:33.342Z,98.00
2022-08-05T03:28:18.720Z,98.10
2022-08-05T03:30:49.385Z,97.90
2022-08-05T03:33:18.814Z,97.90
2022-08-05T03:35:48.587Z,97.30
2022-08-05T03:38:32.748Z,97.10
2022-08-05T03:41:04.073Z,97.20
2022-08-05T03:44:09.830Z,97.30
2022-08-05T03:46:29.674Z,97.20
2022-08-05T03:49:00.178Z,97.10
2022-08-05T03:52:37.589Z,96.80
2022-08-05T03:55:50.695Z,96.90
2022-08-05T03:57:29.253Z,96.90
2022-08-05T04:00:12.375Z,96.90
2022-08-05T04:02:58.120Z,96.60
2022-08-05T04:05:34.472Z,96.80
2022-08-05T04:08:05.856Z,96.80
2022-08-05T04:10:44.912Z,97.00
2022-08-05T04:13:13.185Z,97.20
2022-08-05T04:15:42.589Z,97.30
2022-08-05T04:18:29.608Z,97.10
2022-08-05T04:20:59.302Z,97.30
2022-08-05T04:24:05.322Z,97.20
2022-08-05T04:26:18.652Z,97.30
2022-08-05T04:28:50.992Z,97.40
2022-08-05T04:31:20.389Z,97.50
2022-08-05T04:34:19.046Z,97.40
2022-08-05T04:36:49.697Z,97.40
2022-08-05T04:39:18.705Z,97.60
2022-08-05T04:41:48.024Z,97.80
2022-08-05T04:44:21.273Z,97.90
2022-08-05T04:46:58.624Z,97.90
2022-08-05T04:49:38.619Z,97.90
2022-08-05T04:52:16.268Z,97.70
2022-08-05T04:54:44.298Z,97.40
2022-08-05T04:57:12.340Z,97.50
2022-08-05T04:59:40.731Z,97.90
2022-08-05T05:02:36.710Z,97.60
2022-08-05T05:05:01.640Z,97.90
2022-08-05T05:07:32.373Z,97.40
2022-08-05T05:10:04.300Z,97.80
2022-08-05T05:12:32.566Z,98.10
2022-08-05T05:15:03.647Z,97.90
2022-08-05T05:17:56.263Z,97.50
2022-08-05T05:20:28.484Z,97.30
2022-08-05T05:22:58.804Z,96.20
2022-08-05T05:25:40.440Z,95.80
2022-08-05T05:28:08.889Z,95.40
2022-08-05T05:30:37.401Z,94.90
2022-08-05T05:33:16.269Z,94.40
2022-08-05T05:35:47.387Z,94.00
2022-08-05T05:38:22.911Z,93.50
2022-08-05T05:40:56.123Z,93.00
2022-08-05T05:43:57.014Z,92.60
2022-08-05T05:46:17.777Z,92.40
2022-08-05T05:48:48.829Z,92.10
2022-08-05T05:51:22.320Z,92.00
2022-08-05T05:53:57.409Z,91.30
2022-08-05T05:56:32.198Z,90.70
2022-08-05T05:59:03.558Z,90.60
2022-08-05T06:01:33.401Z,90.70
2022-08-05T06:04:07.504Z,90.40
2022-08-05T06:06:35.970Z,90.50
2022-08-05T06:09:05.923Z,90.30
2022-08-05T06:11:39.372Z,90.10
2022-08-05T06:14:07.928Z,89.20
2022-08-05T06:16:37.261Z,88.80
2022-08-05T06:19:07.101Z,89.00
2022-08-05T06:21:37.512Z,89.10
2022-08-05T06:24:12.364Z,89.40
2022-08-05T06:26:51.643Z,88.90
2022-08-05T06:29:26.453Z,87.30
2022-08-05T06:32:25.446Z,87.30
2022-08-05T06:34:57.431Z,88.40
2022-08-05T06:37:56.926Z,88.10
2022-08-05T06:40:18.237Z,88.80
2022-08-05T06:42:51.673Z,88.20
2022-08-05T06:45:44.967Z,89.20
2022-08-05T06:48:36.112Z,90.00
2022-08-05T06:50:57.384Z,90.30
2022-08-05T06:53:28.217Z,90.20
2022-08-05T06:55:58.613Z,90.70
2022-08-05T06:58:29.805Z,90.90
2022-08-05T07:01:04.570Z,90.80
2022-08-05T07:03:33.463Z,90.80
2022-08-05T07:06:05.748Z,90.90
2022-08-05T07:08:47.822Z,90.50
2022-08-05T07:11:25.104Z,90.30
2022-08-05T07:14:19.992Z,89.50
2022-08-05T07:18:00.755Z,89.60
2022-08-05T07:22:30.361Z,87.00
2022-08-05T07:25:23.301Z,85.80
2022-08-05T07:27:57.686Z,85.70
2022-08-05T07:30:32.511Z,85.70
2022-08-05T07:33:05.149Z,86.50
2022-08-05T07:36:02.653Z,86.60
2022-08-05T07:38:34.100Z,87.30
2022-08-05T07:42:07.028Z,87.10
2022-08-05T07:43:56.386Z,87.30
2022-08-05T07:46:26.485Z,86.10
2022-08-05T07:49:02.100Z,85.90
2022-08-05T07:51:37.518Z,83.20
2022-08-05T07:54:10.399Z,81.20
2022-08-05T07:57:01.973Z,81.80
2022-08-05T07:59:38.027Z,80.00
2022-08-05T08:02:10.665Z,79.50
2022-08-05T08:04:49.458Z,78.40
2022-08-05T08:07:22.262Z,78.60
2022-08-05T08:09:53.058Z,80.30
2022-08-05T08:12:35.520Z,78.80
2022-08-05T08:15:15.804Z,77.90
2022-08-05T08:17:52.308Z,76.70
2022-08-05T08:21:00.515Z,76.40
2022-08-05T08:23:11.645Z,75.90
2022-08-05T08:26:00.520Z,74.70
2022-08-05T08:28:36.137Z,76.50
2022-08-05T08:31:07.431Z,76.80
2022-08-05T08:33:38.027Z,75.80
2022-08-05T08:38:56.797Z,75.10
2022-08-05T08:41:51.045Z,75.80
2022-08-05T08:45:21.058Z,76.20
2022-08-05T08:47:47.179Z,75.30
2022-08-05T08:50:14.492Z,74.50
2022-08-05T08:52:51.633Z,74.70
2022-08-05T08:56:02.007Z,73.40
2022-08-05T08:58:12.863Z,73.00
2022-08-05T09:00:42.383Z,73.30
2022-08-05T09:03:12.559Z,72.20
2022-08-05T09:06:08.700Z,72.90
2022-08-05T09:08:32.536Z,74.10
2022-08-05T09:11:00.579Z,73.80
2022-08-05T09:13:31.697Z,73.80
2022-08-05T09:16:14.511Z,74.00
2022-08-05T09:18:46.942Z,73.20
2022-08-05T09:21:20.813Z,74.70
2022-08-05T09:24:03.792Z,70.80
2022-08-05T09:26:34.906Z,74.80
2022-08-05T09:29:08.827Z,74.90
2022-08-05T09:32:39.353Z,72.90
2022-08-05T09:34:26.748Z,74.60
2022-08-05T09:36:59.317Z,70.40
2022-08-05T09:39:41.641Z,69.60
2022-08-05T09:42:23.942Z,72.50
2022-08-05T09:45:03.420Z,73.20
2022-08-05T09:47:55.310Z,71.20
2022-08-05T09:50:38.783Z,68.50
2022-08-05T09:53:17.136Z,69.60
2022-08-05T09:56:03.923Z,70.60
2022-08-05T09:58:33.112Z,70.60
2022-08-05T10:01:13.421Z,70.50
2022-08-05T10:03:59.505Z,70.90
2022-08-05T10:06:29.366Z,70.10
2022-08-05T10:09:25.627Z,67.90
2022-08-05T10:12:18.742Z,70.50
2022-08-05T10:15:17.147Z,69.60
2022-08-05T10:18:10.972Z,69.60
2022-08-05T10:20:42.807Z,66.70
2022-08-05T10:23:34.104Z,67.00
2022-08-05T10:26:07.530Z,67.40
2022-08-05T10:28:43.909Z,67.20
2022-08-05T10:33:01.071Z,70.00
2022-08-05T10:34:03.365Z,67.90
2022-08-05T10:36:31.790Z,68.40
2022-08-05T10:39:10.268Z,68.10
2022-08-05T10:41:48.790Z,68.40
2022-08-05T10:44:21.245Z,68.70
2022-08-05T10:46:54.269Z,66.70
2022-08-05T10:49:27.233Z,65.50
2022-08-05T10:52:05.020Z,66.50
2022-08-05T10:54:56.963Z,66.70
2022-08-05T10:57:32.267Z,66.30
2022-08-05T11:00:19.792Z,65.60
2022-08-05T11:03:23.683Z,63.10
2022-08-05T11:06:15.344Z,62.80
2022-08-05T11:09:45.057Z,64.80
2022-08-05T11:12:50.931Z,65.40
2022-08-05T11:16:00.235Z,65.80
2022-08-05T11:18:29.820Z,62.40
2022-08-05T11:20:59.061Z,63.70
2022-08-05T11:24:02.807Z,64.80
2022-08-05T11:26:31.820Z,66.40
2022-08-05T11:29:12.291Z,66.20
2022-08-05T11:31:57.340Z,65.60
2022-08-05T11:34:51.951Z,65.10
2022-08-05T11:38:30.622Z,64.50
2022-08-05T11:41:14.090Z,61.20
2022-08-05T11:44:04.700Z,64.50
2022-08-05T11:46:37.942Z,61.80
2022-08-05T11:49:27.006Z,64.40
2022-08-05T11:51:57.566Z,63.80
2022-08-05T11:54:33.165Z,63.80
2022-08-05T11:57:08.520Z,63.20
2022-08-05T11:59:52.056Z,63.30
2022-08-05T12:02:30.258Z,60.90
2022-08-05T12:05:07.494Z,62.70
2022-08-05T12:08:10.331Z,61.20
2022-08-05T12:10:43.178Z,61.40
2022-08-05T12:13:16.920Z,64.60
2022-08-05T12:15:49.854Z,65.20
2022-08-05T12:18:24.315Z,63.40
2022-08-05T12:20:52.663Z,64.00
2022-08-05T12:23:20.742Z,63.60
2022-08-05T12:25:56.441Z,63.70
2022-08-05T12:28:35.058Z,64.30
2022-08-05T12:31:05.893Z,62.60
2022-08-05T12:33:36.590Z,63.10
2022-08-05T12:36:08.500Z,61.10
2022-08-05T12:38:39.716Z,64.10
2022-08-05T12:41:13.951Z,65.00
2022-08-05T12:43:57.366Z,64.60
2022-08-05T12:46:29.575Z,63.20
2022-08-05T12:49:01.095Z,64.10
2022-08-05T12:52:12.603Z,64.00
2022-08-05T12:54:33.587Z,62.20
2022-08-05T12:57:04.054Z,64.60
2022-08-05T13:00:08.430Z,64.90
2022-08-05T13:02:37.346Z,64.20
2022-08-05T13:05:11.052Z,63.90
2022-08-05T13:08:00.030Z,64.80
2022-08-05T13:10:33.050Z,63.30
2022-08-05T13:13:02.768Z,60.30
2022-08-05T13:15:41.428Z,62.00
2022-08-05T13:18:19.703Z,63.20
2022-08-05T13:20:50.487Z,62.00
2022-08-05T13:23:22.577Z,62.80
2022-08-05T13:25:59.558Z,63.80
2022-08-05T13:28:32.037Z,60.70
2022-08-05T13:31:11.145Z,63.20
2022-08-05T13:34:21.627Z,63.00
2022-08-05T13:36:33.411Z,62.50
2022-08-05T13:39:02.455Z,62.60
2022-08-05T13:41:50.422Z,61.70
2022-08-05T13:44:19.260Z,62.70
2022-08-05T13:47:08.411Z,63.00
2022-08-05T13:49:35.950Z,63.40
2022-08-05T13:52:14.064Z,64.90
2022-08-05T13:54:42.590Z,65.30
2022-08-05T13:57:22.656Z,64.00
2022-08-05T13:59:55.361Z,64.30
2022-08-05T14:02:29.769Z,65.30
2022-08-05T14:05:29.179Z,65.80
2022-08-05T14:08:05.782Z,65.20
2022-08-05T14:10:39.527Z,65.80
2022-08-05T14:13:08.328Z,66.20
2022-08-05T14:16:08.157Z,66.40
2022-08-05T14:18:25.209Z,66.70
2022-08-05T14:20:54.738Z,69.40
2022-08-05T14:23:26.429Z,70.90
2022-08-05T14:25:58.640Z,72.00
2022-08-05T14:28:28.705Z,77.70
2022-08-05T14:30:56.937Z,78.80
2022-08-05T14:33:24.922Z,79.40
2022-08-05T14:35:54.303Z,76.50
2022-08-05T14:38:27.777Z,81.10
2022-08-05T14:41:06.119Z,83.10
2022-08-05T14:44:01.853Z,87.90
2022-08-05T14:46:29.168Z,90.00
2022-08-05T14:49:03.457Z,90.40
2022-08-05T14:51:35.869Z,90.90
2022-08-05T14:54:27.861Z,90.50
2022-08-05T14:56:55.412Z,90.40
2022-08-05T14:59:23.494Z,87.40
2022-08-05T15:01:51.612Z,84.00
2022-08-05T15:04:22.817Z,84.50
2022-08-05T15:06:50.994Z,84.30
2022-08-05T15:09:51.287Z,83.60
2022-08-05T15:12:11.582Z,82.80
2022-08-05T15:14:49.933Z,83.00
2022-08-05T15:17:45.601Z,82.40
2022-08-05T15:20:17.109Z,81.00
2022-08-05T15:22:54.193Z,80.00
2022-08-05T15:25:40.870Z,80.50
2022-08-05T15:28:14.480Z,80.60
2022-08-05T15:30:43.682Z,80.30
2022-08-05T15:34:05.507Z,81.10
2022-08-05T15:36:03.612Z,80.00
2022-08-05T15:38:35.764Z,80.10
2022-08-05T15:41:23.358Z,79.80
2022-08-05T15:43:54.934Z,80.00
2022-08-05T15:46:24.853Z,79.20
2022-08-05T15:49:01.236Z,79.10
2022-08-05T15:52:12.738Z,78.70
2022-08-05T15:54:34.526Z,78.70
2022-08-05T15:57:07.300Z,78.10
2022-08-05T15:59:36.307Z,78.30
2022-08-05T16:02:09.870Z,77.40
2022-08-05T16:04:44.000Z,76.90
2022-08-05T16:07:12.184Z,77.40
2022-08-05T16:09:42.094Z,77.40
2022-08-05T16:12:13.124Z,78.00
2022-08-05T16:14:43.396Z,78.30
2022-08-05T16:17:12.307Z,79.10
2022-08-05T16:20:05.432Z,79.50
2022-08-05T16:22:34.442Z,80.00
2022-08-05T16:25:08.029Z,80.10
2022-08-05T16:27:47.147Z,80.40
2022-08-05T16:30:28.909Z,80.50
2022-08-05T16:32:57.785Z,80.30
2022-08-05T16:35:28.712Z,80.70
2022-08-05T16:38:02.277Z,80.70
2022-08-05T16:40:52.043Z,81.10
2022-08-05T16:43:26.500Z,81.10
2022-08-05T16:46:07.517Z,81.70
2022-08-05T16:48:41.317Z,82.60
2022-08-05T16:51:10.919Z,83.10
2022-08-05T16:54:03.913Z,83.50
2022-08-05T16:56:30.554Z,83.60
2022-08-05T16:59:00.855Z,84.10
2022-08-05T17:01:54.718Z,83.70
2022-08-05T17:04:26.563Z,84.20
2022-08-05T17:06:56.990Z,84.50
2022-08-05T17:09:29.411Z,84.50
2022-08-05T17:11:59.466Z,84.10
2022-08-05T17:14:37.650Z,84.10
2022-08-05T17:17:14.615Z,84.60
2022-08-05T17:19:46.161Z,84.80
2022-08-05T17:22:17.926Z,85.00
2022-08-05T17:24:57.781Z,85.30
2022-08-05T17:27:33.644Z,84.90
2022-08-05T17:30:12.063Z,85.10
2022-08-05T17:32:47.095Z,84.80
2022-08-05T17:35:20.973Z,85.10
2022-08-05T17:37:50.501Z,84.20
2022-08-05T17:40:22.422Z,84.80
2022-08-05T17:42:52.931Z,85.00
2022-08-05T17:45:25.031Z,85.00
2022-08-05T17:47:57.857Z,85.10
2022-08-05T17:50:30.565Z,85.00
2022-08-05T17:53:00.919Z,85.00
2022-08-05T17:55:37.618Z,85.20
2022-08-05T17:58:11.213Z,85.40
2022-08-05T18:00:47.519Z,85.60
2022-08-05T18:03:56.401Z,85.80
2022-08-05T18:06:11.682Z,85.90
2022-08-05T18:08:45.771Z,86.30
2022-08-05T18:11:24.841Z,86.50
2022-08-05T18:14:03.728Z,86.50
2022-08-05T18:16:34.115Z,86.90
2022-08-05T18:19:02.366Z,87.10
2022-08-05T18:22:08.286Z,87.30
2022-08-05T18:24:18.958Z,87.20
2022-08-05T18:26:50.282Z,87.20
2022-08-05T18:29:40.221Z,87.40
2022-08-05T18:32:12.968Z,88.00
2022-08-05T18:34:42.910Z,87.50
2022-08-05T18:37:12.326Z,87.60
2022-08-05T18:40:31.127Z,87.80
2022-08-05T18:42:29.486Z,88.00
2022-08-05T18:45:02.765Z,88.20
2022-08-05T18:47:35.356Z,88.30
2022-08-05T18:50:45.278Z,89.30
2022-08-05T18:53:20.852Z,90.20
2022-08-05T18:55:53.196Z,90.30
2022-08-05T18:58:28.719Z,90.40
2022-08-05T19:00:57.809Z,90.90
2022-08-05T19:03:54.950Z,91.30
2022-08-05T19:06:22.046Z,91.30
2022-08-05T19:08:50.673Z,91.60
2022-08-05T19:11:27.958Z,92.00
2022-08-05T19:14:44.768Z,91.80
2022-08-05T19:16:54.011Z,92.30
2022-08-05T19:19:24.623Z,92.30
2022-08-05T19:21:53.350Z,92.60
2022-08-05T19:24:34.475Z,92.50
2022-08-05T19:27:09.987Z,92.60
2022-08-05T19:29:40.610Z,92.60
2022-08-05T19:32:11.486Z,92.60
2022-08-05T19:34:42.299Z,92.80
2022-08-05T19:37:35.170Z,92.90
2022-08-05T19:40:12.283Z,93.00
2022-08-05T19:42:40.385Z,93.10
2022-08-05T19:45:09.672Z,93.30
2022-08-05T19:47:42.670Z,93.30
2022-08-05T19:50:12.305Z,93.40
2022-08-05T19:52:41.257Z,93.50
2022-08-05T19:56:14.915Z,93.60
2022-08-05T19:58:19.454Z,93.60
2022-08-05T20:00:46.892Z,93.60
2022-08-05T20:03:15.062Z,93.70
2022-08-05T20:05:51.229Z,93.70
2022-08-05T20:08:20.029Z,93.70
2022-08-05T20:10:49.547Z,93.30
2022-08-05T20:13:18.329Z,93.40
2022-08-05T20:15:59.672Z,93.40
2022-08-05T20:18:33.332Z,93.50
2022-08-05T20:21:06.819Z,93.50
2022-08-05T20:23:40.362Z,93.40
2022-08-05T20:26:19.146Z,93.20
2022-08-05T20:28:48.688Z,92.90
2022-08-05T20:31:17.132Z,92.50
2022-08-05T20:33:45.630Z,92.50
2022-08-05T20:36:17.952Z,92.40
2022-08-05T20:38:54.433Z,92.40
2022-08-05T20:41:44.580Z,92.40
2022-08-05T20:44:19.388Z,92.70
2022-08-05T20:46:59.478Z,93.00
2022-08-05T20:49:27.621Z,93.80
2022-08-05T20:51:58.065Z,94.00
2022-08-05T20:54:42.425Z,95.50
2022-08-05T20:57:24.423Z,96.80
2022-08-05T21:00:20.532Z,97.80
2022-08-05T21:02:51.467Z,98.10
2022-08-05T21:05:20.163Z,98.60
2022-08-05T21:07:52.120Z,98.30
2022-08-05T21:10:20.707Z,98.50
2022-08-05T21:12:57.937Z,98.10
2022-08-05T21:15:37.102Z,98.50
2022-08-05T21:18:05.394Z,98.60
2022-08-05T21:20:34.200Z,99.00
2022-08-05T21:23:03.985Z,99.90
2022-08-05T21:25:33.795Z,99.90
2022-08-05T21:28:03.094Z,99.90
2022-08-05T21:30:31.401Z,99.90
2022-08-05T21:32:59.908Z,99.90
2022-08-05T21:35:55.325Z,99.90
2022-08-05T21:38:20.166Z,99.90
2022-08-05T21:40:48.341Z,99.90
2022-08-05T21:43:24.445Z,99.90
2022-08-05T21:45:57.666Z,99.90
2022-08-05T21:48:28.891Z,99.90
2022-08-05T21:50:57.294Z,99.90
2022-08-05T21:53:27.590Z,99.90
2022-08-05T21:56:05.869Z,99.90
2022-08-05T21:58:42.309Z,99.90
2022-08-05T22:01:11.140Z,99.90
2022-08-05T22:03:53.594Z,99.90
2022-08-05T22:06:34.908Z,99.90
2022-08-05T22:09:13.082Z,99.90
2022-08-05T22:11:43.539Z,99.90
2022-08-05T22:14:32.424Z,99.90
2022-08-05T22:17:05.078Z,99.90
2022-08-05T22:19:57.265Z,99.90
2022-08-05T22:22:26.979Z,99.90
2022-08-05T22:25:21.101Z,99.90
2022-08-05T22:28:08.219Z,99.90
2022-08-05T22:30:55.519Z,99.90
2022-08-05T22:33:57.050Z,99.90
2022-08-05T22:36:14.669Z,99.90
2022-08-05T22:38:43.984Z,99.90
2022-08-05T22:42:04.335Z,99.90
2022-08-05T22:44:08.158Z,99.90
2022-08-05T22:46:39.987Z,99.90
2022-08-05T22:49:23.042Z,99.90
2022-08-05T22:52:04.775Z,99.90
2022-08-05T22:54:34.908Z,99.90
2022-08-05T22:57:04.553Z,99.90
2022-08-05T22:59:43.602Z,99.90
2022-08-05T23:02:17.260Z,99.90
2022-08-05T23:04:52.173Z,99.90
2022-08-05T23:07:23.098Z,99.90
2022-08-05T23:09:57.199Z,99.90
2022-08-05T23:12:32.806Z,99.90
2022-08-05T23:15:01.467Z,99.90
2022-08-05T23:17:34.249Z,99.90
2022-08-05T23:20:10.103Z,99.90
2022-08-05T23:22:47.583Z,99.90
2022-08-05T23:25:51.689Z,99.90
2022-08-05T23:28:07.889Z,99.90
2022-08-05T23:30:40.451Z,99.90
2022-08-05T23:33:16.088Z,99.90
2022-08-05T23:35:50.160Z,99.90
2022-08-05T23:38:18.307Z,99.90
2022-08-05T23:40:50.024Z,99.90
2022-08-05T23:43:25.091Z,99.90
2022-08-05T23:46:19.746Z,99.90
2022-08-05T23:49:00.790Z,99.90
2022-08-05T23:51:52.891Z,99.90
2022-08-05T23:54:25.055Z,99.90
2022-08-05T23:57:03.421Z,99.90
